Time;durP1;ratioP1;P1;durP2;ratioP2;P2;SDS_P1;SDS_P2;PMS_P1;PMS_P2;Temp;Humidity;BMP_temperature;BMP_pressure;BME280_temperature;BME280_humidity;BME280_pressure;Samples;Min_cycle;Max_cycle;Signal;HPM_P1;HPM_P2
2022/10/17 00:00:01;;;;;;;19.17;13.15;;;19.00;58.50;;;;;;4973997;28;20038;-87
2022/10/17 00:02:26;;;;;;;21.23;14.98;;;19.00;58.40;;;;;;4957015;28;20048;-88
2022/10/17 00:04:52;;;;;;;23.20;16.02;;;18.80;58.20;;;;;;4953646;29;20047;-89
2022/10/17 00:07:18;;;;;;;20.42;15.52;;;18.40;58.70;;;;;;4946152;28;20031;-88
2022/10/17 00:09:43;;;;;;;19.25;13.77;;;18.20;59.10;;;;;;4966166;28;20027;-88
2022/10/17 00:12:10;;;;;;;20.58;14.75;;;18.10;59.20;;;;;;4959186;28;20109;-88
2022/10/17 00:14:36;;;;;;;22.48;14.77;;;18.00;59.50;;;;;;4972139;28;20077;-88
2022/10/17 00:17:02;;;;;;;21.25;15.20;;;18.00;59.80;;;;;;4973793;28;20435;-89
2022/10/17 00:19:27;;;;;;;22.20;15.98;;;18.10;59.60;;;;;;4957783;28;20117;-88
2022/10/17 00:21:53;;;;;;;22.83;14.43;;;18.20;59.50;;;;;;4973797;28;20343;-88
2022/10/17 00:24:19;;;;;;;22.40;14.80;;;18.20;59.10;;;;;;4973761;28;20637;-88
2022/10/17 00:26:45;;;;;;;23.95;15.27;;;18.20;59.10;;;;;;4973318;28;20046;-87
2022/10/17 00:29:10;;;;;;;22.23;15.73;;;18.20;59.70;;;;;;4966224;28;20057;-88
2022/10/17 00:31:36;;;;;;;22.52;14.88;;;18.40;59.40;;;;;;4957837;28;20133;-88
2022/10/17 00:34:02;;;;;;;24.42;14.77;;;18.40;59.20;;;;;;4957490;28;20441;-89
2022/10/17 00:36:28;;;;;;;22.63;15.93;;;18.40;59.10;;;;;;4973587;28;20058;-87
2022/10/17 00:38:57;;;;;;;21.67;15.48;;;18.30;58.90;;;;;;4957730;28;20038;-90
2022/10/17 00:41:27;;;;;;;18.67;14.20;;;18.30;58.90;;;;;;4957811;28;20023;-88
2022/10/17 00:43:59;;;;;;;23.13;15.30;;;18.20;59.10;;;;;;4958438;28;20027;-88
2022/10/17 00:46:30;;;;;;;21.10;13.85;;;18.10;59.30;;;;;;4957658;28;20030;-89
2022/10/17 00:49:02;;;;;;;21.15;13.95;;;17.90;59.20;;;;;;4958047;28;20413;-87
2022/10/17 00:51:49;;;;;;;20.80;14.15;;;17.80;59.80;;;;;;4958200;28;20027;-89
2022/10/17 00:54:21;;;;;;;21.50;14.10;;;18.00;59.70;;;;;;4957598;28;20470;-89
2022/10/17 00:56:48;;;;;;;22.52;15.00;;;18.00;59.60;;;;;;4957673;28;20077;-89
2022/10/17 00:59:16;;;;;;;19.58;14.23;;;17.90;59.60;;;;;;4957699;28;20049;-88
2022/10/17 01:01:50;;;;;;;23.02;15.35;;;17.90;59.30;;;;;;4957620;28;20471;-88
2022/10/17 01:04:17;;;;;;;23.10;15.40;;;17.80;59.40;;;;;;4959614;28;20477;-88
2022/10/17 01:06:42;;;;;;;22.25;13.95;;;18.00;59.20;;;;;;4951900;29;20015;-87
2022/10/17 01:09:08;;;;;;;21.90;14.75;;;18.00;59.30;;;;;;4965889;28;20026;-88
2022/10/17 01:11:57;;;;;;;23.00;14.55;;;18.10;58.80;;;;;;4976508;28;20232;-88
2022/10/17 01:14:42;;;;;;;22.27;15.52;;;18.10;58.40;;;;;;4976506;28;20035;-87
2022/10/17 01:17:28;;;;;;;24.95;14.20;;;18.00;58.60;;;;;;4975713;28;20030;-87
2022/10/17 01:20:27;;;;;;;21.27;14.65;;;17.90;58.60;;;;;;4976822;28;20554;-88
2022/10/17 01:22:56;;;;;;;21.88;14.30;;;17.90;58.70;;;;;;4959915;28;20041;-87
2022/10/17 01:25:47;;;;;;;22.58;15.25;;;17.80;59.20;;;;;;4992823;28;20105;-88
2022/10/17 01:28:41;;;;;;;20.35;14.18;;;17.70;59.00;;;;;;4992689;28;20037;-90
2022/10/17 01:31:12;;;;;;;18.77;13.63;;;17.50;59.20;;;;;;4976576;28;20018;-88
2022/10/17 01:33:52;;;;;;;22.50;14.75;;;17.60;59.20;;;;;;4959564;28;20386;-88
2022/10/17 01:36:24;;;;;;;18.92;13.70;;;17.70;59.50;;;;;;4959886;28;20038;-87
2022/10/17 01:38:57;;;;;;;17.75;12.38;;;17.70;59.50;;;;;;4996186;28;20023;-87
2022/10/17 01:41:23;;;;;;;17.73;12.55;;;17.70;59.60;;;;;;4958622;28;20034;-90
2022/10/17 01:43:57;;;;;;;19.42;13.30;;;17.70;58.90;;;;;;4992062;28;20035;-89
2022/10/17 01:46:59;;;;;;;19.33;12.48;;;17.70;58.80;;;;;;4950323;29;20473;-88
2022/10/17 01:49:28;;;;;;;19.38;13.30;;;17.70;59.10;;;;;;4942995;28;20031;-88
2022/10/17 01:51:59;;;;;;;17.92;12.85;;;17.80;59.10;;;;;;4992364;28;20031;-88
2022/10/17 01:54:39;;;;;;;18.73;13.38;;;17.80;59.10;;;;;;4959504;28;20018;-88
2022/10/17 01:57:12;;;;;;;19.50;12.32;;;17.90;59.30;;;;;;4959652;28;20118;-88
2022/10/17 01:59:45;;;;;;;20.92;13.57;;;17.90;58.90;;;;;;4958547;28;20047;-89
2022/10/17 02:02:13;;;;;;;24.23;14.23;;;17.80;58.50;;;;;;4958945;28;20029;-88
2022/10/17 02:04:40;;;;;;;19.83;12.43;;;17.80;59.10;;;;;;4959672;28;20554;-89
2022/10/17 02:07:08;;;;;;;19.42;14.02;;;17.70;59.20;;;;;;4958838;28;20042;-89
2022/10/17 02:09:34;;;;;;;21.40;13.57;;;17.80;59.20;;;;;;4960043;28;20026;-89
2022/10/17 02:12:38;;;;;;;20.55;12.68;;;17.90;59.30;;;;;;4944503;28;20038;-89
2022/10/17 02:15:19;;;;;;;21.35;15.27;;;17.70;59.40;;;;;;4863834;29;20081;-88
2022/10/17 02:17:50;;;;;;;20.48;13.55;;;17.90;58.80;;;;;;4911112;29;20060;-89
2022/10/17 02:20:20;;;;;;;19.63;13.00;;;18.00;59.70;;;;;;4914708;29;20033;-88
2022/10/17 02:22:54;;;;;;;20.45;13.48;;;18.00;59.00;;;;;;4898358;29;20043;-86
2022/10/17 02:25:47;;;;;;;21.90;13.27;;;18.00;58.90;;;;;;4882916;29;20032;-89
2022/10/17 02:28:40;;;;;;;18.58;12.70;;;18.10;58.80;;;;;;4898498;29;20021;-88
2022/10/17 02:31:15;;;;;;;18.33;12.82;;;18.10;58.70;;;;;;4882922;29;20123;-88
2022/10/17 02:33:47;;;;;;;18.23;12.68;;;18.00;58.70;;;;;;4898121;29;20016;-88
2022/10/17 02:36:19;;;;;;;19.20;12.80;;;17.90;58.70;;;;;;4882941;29;20033;-89
2022/10/17 02:38:46;;;;;;;19.42;13.18;;;18.00;58.50;;;;;;4882807;29;20024;-88
2022/10/17 02:41:16;;;;;;;19.15;13.30;;;17.80;58.30;;;;;;4882707;29;20451;-89
2022/10/17 02:43:44;;;;;;;19.50;12.68;;;17.80;58.40;;;;;;4882656;29;20458;-88
2022/10/17 02:46:19;;;;;;;17.85;12.60;;;17.70;58.80;;;;;;4882569;29;20020;-88
2022/10/17 02:48:57;;;;;;;19.52;12.90;;;17.60;58.90;;;;;;4910805;28;20079;-91
2022/10/17 02:51:35;;;;;;;19.17;13.23;;;17.50;58.50;;;;;;4958793;28;20031;-92
2022/10/17 02:54:23;;;;;;;17.33;12.55;;;17.30;58.60;;;;;;4958776;28;20085;-91
2022/10/17 02:56:59;;;;;;;22.30;13.43;;;17.10;58.90;;;;;;4958650;28;20113;-89
2022/10/17 02:59:27;;;;;;;18.40;11.88;;;17.20;58.90;;;;;;4958632;28;20042;-89
2022/10/17 03:01:53;;;;;;;18.33;13.35;;;17.20;59.50;;;;;;4958446;28;20061;-88
2022/10/17 03:04:19;;;;;;;20.75;13.23;;;16.50;61.80;;;;;;4958334;28;20027;-89
2022/10/17 03:06:46;;;;;;;20.30;13.52;;;16.10;63.10;;;;;;4958649;28;20042;-88
2022/10/17 03:09:13;;;;;;;18.92;13.55;;;16.20;64.80;;;;;;4958335;28;20046;-87
2022/10/17 03:11:38;;;;;;;19.27;13.45;;;16.60;64.40;;;;;;4958130;28;20426;-89
2022/10/17 03:14:04;;;;;;;23.67;13.30;;;17.10;63.20;;;;;;4957975;28;20034;-90
2022/10/17 03:16:30;;;;;;;21.25;13.45;;;17.50;61.70;;;;;;4947066;29;20023;-89
2022/10/17 03:18:56;;;;;;;17.20;12.98;;;17.70;60.10;;;;;;4952572;28;20086;-89
2022/10/17 03:21:21;;;;;;;20.02;13.48;;;17.90;59.20;;;;;;4990480;28;20034;-89
2022/10/17 03:23:47;;;;;;;20.10;13.73;;;18.00;58.40;;;;;;4958272;28;20039;-90
2022/10/17 03:26:13;;;;;;;19.70;13.27;;;17.80;57.90;;;;;;4958432;28;20019;-90
2022/10/17 03:28:38;;;;;;;21.95;13.20;;;17.60;58.10;;;;;;4957413;28;20053;-89
2022/10/17 03:31:13;;;;;;;17.33;13.10;;;17.60;58.30;;;;;;4958178;28;20033;-92
2022/10/17 03:33:39;;;;;;;20.30;13.48;;;17.30;58.30;;;;;;4963689;28;20374;-87
2022/10/17 03:36:07;;;;;;;22.17;13.95;;;17.30;58.80;;;;;;4959831;28;20019;-91
2022/10/17 03:38:34;;;;;;;22.42;13.85;;;17.20;58.60;;;;;;4974440;28;20031;-90
2022/10/17 03:41:00;;;;;;;20.35;13.75;;;17.20;58.40;;;;;;4958382;28;20025;-89
2022/10/17 03:43:26;;;;;;;23.08;13.80;;;17.10;58.90;;;;;;4975660;28;20030;-89
2022/10/17 03:45:51;;;;;;;19.05;12.05;;;17.10;58.90;;;;;;4978636;28;20521;-89
2022/10/17 03:48:17;;;;;;;17.75;12.98;;;17.10;59.00;;;;;;4977415;28;20377;-89
2022/10/17 03:50:43;;;;;;;17.17;11.82;;;17.20;59.10;;;;;;4978062;28;20019;-89
2022/10/17 03:53:08;;;;;;;18.10;12.45;;;17.20;58.90;;;;;;4993772;28;20425;-90
2022/10/17 03:55:34;;;;;;;19.95;13.00;;;17.10;58.50;;;;;;4977869;28;20073;-90
2022/10/17 03:58:00;;;;;;;20.52;12.57;;;16.80;58.90;;;;;;4977713;28;20376;-92
2022/10/17 04:17:14;;;;;;;21.58;15.40;;;16.90;59.00;;;;;;5086017;23;20124;-90
2022/10/17 04:19:40;;;;;;;20.15;13.95;;;16.90;58.90;;;;;;4999313;28;20112;-90
2022/10/17 04:22:07;;;;;;;22.17;14.73;;;17.00;58.80;;;;;;4996760;28;20026;-89
2022/10/17 04:24:33;;;;;;;22.05;14.73;;;17.00;59.70;;;;;;4996776;28;20014;-89
2022/10/17 04:26:59;;;;;;;18.98;13.90;;;17.10;59.10;;;;;;5000005;28;20149;-91
2022/10/17 04:29:25;;;;;;;20.52;13.73;;;17.00;58.50;;;;;;5013344;28;20058;-88
2022/10/17 04:31:51;;;;;;;19.92;13.95;;;17.00;58.20;;;;;;4996646;28;20022;-91
2022/10/17 04:34:17;;;;;;;21.45;14.65;;;17.00;58.10;;;;;;4996760;28;20112;-89
2022/10/17 04:36:43;;;;;;;21.27;14.07;;;17.00;58.30;;;;;;4996980;28;20413;-90
2022/10/17 04:39:08;;;;;;;23.45;14.75;;;17.00;59.10;;;;;;4998802;28;20040;-90
2022/10/17 04:41:35;;;;;;;25.70;14.48;;;17.00;58.60;;;;;;5002084;28;20022;-90
2022/10/17 04:44:01;;;;;;;25.40;15.32;;;16.90;58.50;;;;;;5000561;28;20026;-89
2022/10/17 04:46:27;;;;;;;22.25;14.85;;;16.80;58.20;;;;;;5000127;28;20030;-89
2022/10/17 04:48:53;;;;;;;22.13;14.27;;;16.90;58.10;;;;;;5017555;28;20033;-90
2022/10/17 04:51:19;;;;;;;24.10;15.20;;;17.00;58.30;;;;;;4999895;28;20014;-89
2022/10/17 04:53:45;;;;;;;26.38;15.48;;;16.90;58.00;;;;;;5000026;28;20157;-89
2022/10/17 04:56:17;;;;;;;25.02;15.93;;;16.70;58.20;;;;;;5000174;28;20018;-89
2022/10/17 04:58:44;;;;;;;26.83;15.88;;;16.60;58.30;;;;;;4999493;28;20105;-88
2022/10/17 05:01:13;;;;;;;26.15;14.80;;;16.40;59.00;;;;;;5000003;28;20021;-89
2022/10/17 05:03:39;;;;;;;34.58;17.58;;;16.30;58.70;;;;;;5011408;28;20456;-92
2022/10/17 05:06:11;;;;;;;29.90;16.35;;;16.20;59.90;;;;;;5012436;28;20026;-88
2022/10/17 05:08:37;;;;;;;30.50;17.30;;;16.20;59.80;;;;;;4999251;28;20038;-88
2022/10/17 05:11:03;;;;;;;24.88;16.63;;;16.40;59.60;;;;;;4999757;28;20022;-87
2022/10/17 05:13:29;;;;;;;26.05;15.63;;;16.40;59.50;;;;;;4996761;28;20041;-88
2022/10/17 05:15:59;;;;;;;23.38;15.07;;;16.50;59.50;;;;;;4998247;28;20481;-89
2022/10/17 05:18:24;;;;;;;24.27;14.95;;;16.60;58.70;;;;;;4999571;28;20030;-88
2022/10/17 05:20:50;;;;;;;21.52;13.77;;;16.70;58.80;;;;;;4999670;28;20025;-88
2022/10/17 05:23:16;;;;;;;21.10;12.95;;;16.70;58.60;;;;;;4996273;28;20104;-89
2022/10/17 05:25:41;;;;;;;19.13;12.75;;;16.70;58.80;;;;;;5005142;28;20584;-89
2022/10/17 05:28:07;;;;;;;20.25;14.30;;;16.70;58.80;;;;;;5015413;28;20029;-90
2022/10/17 05:30:34;;;;;;;23.95;14.65;;;16.80;59.00;;;;;;5015049;28;20370;-88
2022/10/17 05:33:01;;;;;;;18.83;12.68;;;16.90;59.80;;;;;;4999215;28;20014;-88
2022/10/17 05:35:26;;;;;;;22.20;14.50;;;16.60;60.80;;;;;;4998033;28;20060;-90
2022/10/17 05:37:52;;;;;;;20.50;13.82;;;16.10;62.30;;;;;;5015265;28;20021;-88
2022/10/17 05:40:19;;;;;;;18.88;13.30;;;15.80;64.10;;;;;;5014164;28;20536;-86
2022/10/17 05:42:46;;;;;;;20.75;13.73;;;16.10;62.70;;;;;;5010679;28;20021;-88
2022/10/17 05:45:12;;;;;;;18.52;12.13;;;16.50;61.30;;;;;;4997472;28;20025;-91
2022/10/17 05:47:37;;;;;;;22.25;13.98;;;16.90;60.50;;;;;;5014696;28;20026;-90
2022/10/17 05:50:12;;;;;;;20.98;14.05;;;16.00;64.00;;;;;;4998221;28;20029;-88
2022/10/17 05:52:38;;;;;;;21.80;14.95;;;15.30;66.70;;;;;;4997295;28;20044;-86
2022/10/17 05:55:05;;;;;;;23.88;15.45;;;15.40;67.50;;;;;;5014421;28;20651;-89
2022/10/17 05:57:36;;;;;;;26.00;16.25;;;15.90;66.20;;;;;;4998202;28;20116;-92
2022/10/17 06:00:03;;;;;;;19.73;13.15;;;16.50;64.00;;;;;;5001490;28;20029;-86
2022/10/17 06:02:29;;;;;;;23.38;14.13;;;16.00;65.90;;;;;;5006014;28;20029;-90
2022/10/17 06:04:55;;;;;;;18.20;12.95;;;15.60;67.90;;;;;;5012558;28;20034;-94
2022/10/17 06:07:21;;;;;;;22.90;15.05;;;15.90;67.00;;;;;;4997814;28;20030;-93
2022/10/17 06:09:46;;;;;;;22.35;13.93;;;16.50;66.40;;;;;;5013132;28;20518;-90
2022/10/17 06:12:12;;;;;;;24.70;14.20;;;17.00;65.10;;;;;;4997125;28;20060;-86
2022/10/17 06:14:38;;;;;;;19.15;14.40;;;17.50;63.50;;;;;;5013439;28;20468;-87
2022/10/17 06:17:04;;;;;;;17.95;13.57;;;17.80;62.90;;;;;;4998459;28;20037;-86
2022/10/17 06:19:29;;;;;;;17.35;13.30;;;18.00;62.00;;;;;;5015871;28;20060;-94
2022/10/17 06:21:55;;;;;;;19.08;12.88;;;17.70;63.30;;;;;;4997468;28;20021;-95
2022/10/17 06:24:21;;;;;;;20.25;13.32;;;17.60;63.20;;;;;;5013885;28;20045;-91
2022/10/17 06:26:48;;;;;;;18.25;12.68;;;17.80;63.20;;;;;;5013813;28;20014;-92
2022/10/17 06:29:14;;;;;;;18.30;13.02;;;18.10;62.10;;;;;;5017237;28;20022;-91
2022/10/17 06:31:40;;;;;;;21.05;13.05;;;18.30;61.90;;;;;;4998005;28;20020;-92
2022/10/17 06:34:05;;;;;;;22.10;12.98;;;18.40;62.10;;;;;;4997380;28;20416;-91
2022/10/17 06:36:31;;;;;;;17.48;13.50;;;18.60;61.70;;;;;;4996776;28;20029;-94
2022/10/17 06:38:57;;;;;;;20.60;14.77;;;18.70;61.70;;;;;;4996735;28;20029;-91
2022/10/17 06:41:25;;;;;;;19.80;14.13;;;18.50;61.60;;;;;;5013798;28;20022;-94
2022/10/17 06:43:50;;;;;;;20.73;14.95;;;18.10;62.70;;;;;;5014443;28;20080;-93
2022/10/17 06:46:18;;;;;;;22.00;15.70;;;17.90;63.50;;;;;;4996950;28;20018;-94
2022/10/17 06:48:44;;;;;;;22.60;14.52;;;18.00;63.30;;;;;;4998402;28;20130;-95
2022/10/17 06:51:10;;;;;;;27.38;15.75;;;18.20;63.10;;;;;;5013884;28;20453;-96
2022/10/17 06:54:01;;;;;;;20.88;13.95;;;18.40;62.50;;;;;;5014948;28;20072;-92
2022/10/17 06:56:38;;;;;;;19.13;13.02;;;17.70;64.20;;;;;;5009200;28;20040;-95
2022/10/17 06:59:04;;;;;;;20.48;14.13;;;17.90;64.70;;;;;;4997574;28;20018;-95
2022/10/17 07:01:30;;;;;;;21.38;14.43;;;18.50;63.60;;;;;;4980632;28;20022;-89
2022/10/17 07:03:58;;;;;;;19.92;13.75;;;19.00;62.40;;;;;;5013736;28;20038;-92
2022/10/17 07:06:28;;;;;;;20.20;14.15;;;19.30;61.70;;;;;;5020577;28;20022;-93
2022/10/17 07:08:54;;;;;;;20.98;13.82;;;19.70;61.20;;;;;;4998063;28;20369;-94
2022/10/17 07:11:21;;;;;;;29.23;14.18;;;19.90;60.80;;;;;;5013912;28;20022;-91
2022/10/17 07:13:47;;;;;;;21.67;14.48;;;20.00;60.90;;;;;;4996698;28;20033;-91
2022/10/17 07:16:14;;;;;;;22.08;13.68;;;20.10;60.80;;;;;;5011989;28;20059;-88
2022/10/17 07:18:40;;;;;;;23.65;15.35;;;20.20;60.60;;;;;;4998719;28;20025;-88
2022/10/17 07:21:09;;;;;;;27.17;18.90;;;20.20;60.60;;;;;;4997022;28;20072;-89
2022/10/17 07:23:35;;;;;;;24.63;16.95;;;20.20;60.90;;;;;;4997326;28;20121;-90
2022/10/17 07:26:07;;;;;;;27.80;17.73;;;20.20;60.50;;;;;;4997728;28;20049;-90
2022/10/17 07:28:35;;;;;;;23.55;15.07;;;20.50;60.30;;;;;;5013907;28;20022;-88
2022/10/17 07:31:10;;;;;;;23.15;13.88;;;20.70;58.80;;;;;;4998345;28;20041;-88
2022/10/17 07:33:37;;;;;;;19.40;13.00;;;20.80;58.60;;;;;;4997147;28;20105;-88
2022/10/17 07:36:04;;;;;;;20.40;13.68;;;20.90;58.70;;;;;;5012955;28;20018;-87
2022/10/17 07:38:30;;;;;;;22.70;13.07;;;21.20;58.40;;;;;;5012985;28;20075;-89
2022/10/17 07:41:00;;;;;;;17.00;12.48;;;21.20;57.90;;;;;;5010320;28;20030;-88
2022/10/17 07:43:27;;;;;;;19.45;13.68;;;21.20;57.50;;;;;;5012372;28;20034;-88
2022/10/17 07:45:54;;;;;;;20.50;12.27;;;21.40;58.00;;;;;;5013170;28;20334;-87
2022/10/17 07:48:50;;;;;;;19.67;13.25;;;21.60;57.40;;;;;;4997028;28;20030;-88
2022/10/17 07:58:27;;;;;;;18.42;13.00;;;21.90;57.90;;;;;;5010312;28;20125;-84
2022/10/17 08:01:35;;;;;;;18.73;12.50;;;22.00;57.30;;;;;;4907476;29;20041;-89
2022/10/17 08:04:01;;;;;;;17.50;12.45;;;22.00;56.30;;;;;;4897937;29;20160;-87
2022/10/17 08:06:27;;;;;;;17.75;11.73;;;21.90;56.20;;;;;;4919607;29;20127;-84
2022/10/17 08:08:54;;;;;;;18.30;12.23;;;21.80;55.20;;;;;;4915989;29;20403;-92
2022/10/17 08:11:21;;;;;;;17.55;11.15;;;21.50;57.40;;;;;;4915562;29;20127;-87
2022/10/17 08:13:47;;;;;;;15.10;11.75;;;21.20;56.20;;;;;;4916366;29;20032;-82
2022/10/17 08:16:12;;;;;;;15.05;11.52;;;21.00;58.00;;;;;;4918733;29;20056;-83
2022/10/17 08:18:40;;;;;;;21.27;12.38;;;21.50;57.10;;;;;;4909940;29;20032;-89
2022/10/17 08:21:07;;;;;;;17.15;11.90;;;21.90;56.30;;;;;;4938831;29;20175;-87
2022/10/17 08:23:33;;;;;;;18.45;12.70;;;21.30;57.10;;;;;;4923057;29;20165;-87
2022/10/17 08:26:00;;;;;;;17.80;12.02;;;21.30;57.20;;;;;;4939094;29;20028;-90
2022/10/17 08:28:26;;;;;;;19.00;12.05;;;21.70;56.30;;;;;;4938113;29;20114;-85
2022/10/17 08:30:51;;;;;;;16.52;11.27;;;21.90;56.60;;;;;;4938496;29;20119;-89
2022/10/17 08:33:17;;;;;;;16.30;11.32;;;22.20;55.50;;;;;;4939165;29;20090;-85
2022/10/17 08:35:43;;;;;;;15.82;11.45;;;21.90;56.30;;;;;;4938779;29;20020;-84
2022/10/17 08:38:08;;;;;;;16.55;11.55;;;21.70;56.60;;;;;;5011504;28;20485;-84
2022/10/17 08:40:35;;;;;;;17.13;11.40;;;21.40;56.60;;;;;;5034005;28;20057;-88
2022/10/17 08:43:27;;;;;;;16.05;11.95;;;21.20;56.60;;;;;;5033309;28;20045;-89
2022/10/17 08:46:04;;;;;;;28.25;14.65;;;21.70;56.20;;;;;;5033599;28;20022;-88
2022/10/17 08:48:38;;;;;;;16.30;10.48;;;21.80;56.30;;;;;;5016654;28;20026;-89
2022/10/17 08:51:04;;;;;;;15.00;10.90;;;22.30;54.80;;;;;;5032717;28;20018;-84
2022/10/17 08:53:42;;;;;;;21.08;10.98;;;22.50;54.30;;;;;;5016040;28;20034;-86
2022/10/17 08:56:24;;;;;;;16.23;10.93;;;22.80;55.10;;;;;;5032440;28;20026;-88
2022/10/17 08:58:50;;;;;;;15.80;11.07;;;22.80;54.00;;;;;;5032173;28;20025;-86
2022/10/17 09:01:32;;;;;;;14.98;10.57;;;23.10;54.40;;;;;;5032218;28;20236;-89
2022/10/17 09:04:16;;;;;;;19.67;10.95;;;23.40;53.20;;;;;;5032645;28;20033;-84
2022/10/17 09:07:12;;;;;;;15.32;11.18;;;23.00;53.50;;;;;;5016236;28;20022;-94
2022/10/17 09:09:51;;;;;;;16.27;10.88;;;23.10;53.50;;;;;;5032272;28;20029;-84
2022/10/17 09:12:37;;;;;;;15.10;10.68;;;23.40;53.40;;;;;;5015859;28;20032;-92
2022/10/17 09:15:30;;;;;;;16.92;11.20;;;23.40;53.50;;;;;;5031933;28;20018;-88
2022/10/17 09:18:02;;;;;;;16.33;9.88;;;23.20;54.00;;;;;;5015746;28;20516;-89
2022/10/17 09:20:33;;;;;;;14.60;10.88;;;22.40;54.50;;;;;;5032477;28;20038;-88
2022/10/17 09:23:07;;;;;;;16.40;10.90;;;22.90;54.90;;;;;;5031822;28;20034;-89
2022/10/17 09:25:44;;;;;;;16.58;10.88;;;23.20;53.40;;;;;;5032117;28;20029;-89
2022/10/17 09:28:29;;;;;;;15.82;10.43;;;23.60;54.00;;;;;;5032145;28;20037;-88
2022/10/17 09:31:02;;;;;;;14.00;10.05;;;23.70;52.30;;;;;;5025223;28;20473;-87
2022/10/17 09:33:40;;;;;;;13.40;10.07;;;22.80;53.40;;;;;;4999294;28;20026;-94
2022/10/17 09:36:39;;;;;;;19.05;11.60;;;22.30;55.30;;;;;;4999623;28;20117;-90
2022/10/17 09:39:17;;;;;;;14.15;10.52;;;22.80;55.70;;;;;;4999464;28;20053;-91
2022/10/17 09:41:50;;;;;;;12.82;9.85;;;23.40;54.10;;;;;;4999558;28;20033;-95
2022/10/17 09:44:24;;;;;;;30.52;11.80;;;23.70;53.20;;;;;;4999822;28;20136;-88
2022/10/17 09:47:18;;;;;;;19.13;12.30;;;23.90;53.70;;;;;;4998948;28;20022;-84
2022/10/17 09:49:45;;;;;;;18.50;11.65;;;24.30;52.50;;;;;;4998997;28;20070;-91
2022/10/17 09:52:38;;;;;;;15.20;9.80;;;24.20;52.30;;;;;;4999347;28;20480;-92
2022/10/17 09:55:39;;;;;;;23.00;13.73;;;24.20;52.50;;;;;;5001819;28;20026;-84
2022/10/17 09:58:07;;;;;;;18.13;11.65;;;24.60;52.10;;;;;;4999616;28;20073;-88
2022/10/17 10:00:39;;;;;;;17.33;10.98;;;24.80;50.80;;;;;;4998489;28;20033;-86
2022/10/17 10:03:20;;;;;;;18.85;11.85;;;25.10;50.80;;;;;;4997502;28;20485;-95
2022/10/17 10:06:07;;;;;;;16.40;8.98;;;25.30;50.90;;;;;;5000093;28;20026;-95
2022/10/17 10:08:52;;;;;;;15.57;9.10;;;25.60;50.30;;;;;;5000336;28;20022;-86
2022/10/17 10:11:23;;;;;;;12.38;8.80;;;25.10;49.80;;;;;;4999273;28;20022;-92
2022/10/17 10:13:49;;;;;;;31.38;18.88;;;24.60;50.90;;;;;;5000784;28;20068;-90
2022/10/17 10:16:20;;;;;;;15.07;9.73;;;24.90;50.20;;;;;;4998744;28;20050;-89
2022/10/17 10:18:46;;;;;;;;;;;24.30;50.90;;;;;;4999934;28;20032;-88
2022/10/17 10:21:14;;;;;;;14.05;9.85;;;24.10;52.10;;;;;;4998136;28;19955;-85
2022/10/17 10:24:01;;;;;;;15.48;9.48;;;24.70;51.60;;;;;;4998462;28;20563;-86
2022/10/17 10:26:33;;;;;;;11.07;8.27;;;25.50;50.40;;;;;;4981766;28;20037;-93
2022/10/17 10:29:45;;;;;;;12.93;8.27;;;25.80;50.20;;;;;;4996584;28;20105;-88
2022/10/17 10:32:22;;;;;;;15.45;8.60;;;25.70;49.80;;;;;;4908749;29;20040;-91
2022/10/17 10:34:51;;;;;;;12.88;8.32;;;25.60;50.20;;;;;;4918794;29;20083;-88
2022/10/17 10:37:24;;;;;;;12.45;7.95;;;25.80;50.10;;;;;;4918520;29;20044;-89
2022/10/17 10:39:59;;;;;;;13.80;8.43;;;26.00;49.30;;;;;;4935146;29;20031;-90
2022/10/17 10:42:38;;;;;;;11.57;7.90;;;26.30;49.40;;;;;;4919364;29;20048;-91
2022/10/17 10:45:38;;;;;;;14.50;8.38;;;26.50;49.50;;;;;;4921071;29;20050;-86
2022/10/17 10:48:31;;;;;;;11.63;7.90;;;25.80;49.10;;;;;;4920441;29;20364;-90
2022/10/17 10:51:08;;;;;;;26.08;8.13;;;25.80;50.10;;;;;;4920051;29;20036;-86
2022/10/17 10:54:01;;;;;;;12.60;7.88;;;26.30;49.70;;;;;;4920341;29;20419;-87
2022/10/17 10:56:51;;;;;;;12.50;7.57;;;26.20;49.10;;;;;;4921120;29;20035;-89
2022/10/17 10:59:24;;;;;;;;;;;26.30;49.30;;;;;;4913234;29;20036;-84
2022/10/17 11:02:11;;;;;;;14.27;7.78;;;26.60;49.50;;;;;;4919742;29;20006;-85
2022/10/17 11:04:43;;;;;;;15.95;7.38;;;26.70;49.20;;;;;;4921099;29;20039;-93
2022/10/17 11:07:31;;;;;;;13.95;7.50;;;26.50;49.40;;;;;;4920202;29;20020;-90
2022/10/17 11:10:00;;;;;;;12.15;7.38;;;26.60;49.10;;;;;;4998164;28;20028;-84
2022/10/17 11:12:35;;;;;;;10.93;7.57;;;26.40;49.10;;;;;;4997684;28;20129;-90
2022/10/17 11:15:12;;;;;;;15.45;7.18;;;26.40;49.60;;;;;;4997390;28;20088;-90
2022/10/17 11:17:49;;;;;;;14.07;7.55;;;26.50;48.80;;;;;;4997407;28;20489;-91
2022/10/17 11:20:19;;;;;;;13.18;6.95;;;26.40;49.20;;;;;;4997559;28;20054;-88
2022/10/17 11:22:51;;;;;;;;;;;26.70;49.20;;;;;;4998614;28;20382;-89
2022/10/17 11:25:37;;;;;;;10.93;7.30;;;26.30;48.70;;;;;;4997521;28;19937;-86
2022/10/17 11:28:10;;;;;;;11.57;7.55;;;26.20;49.40;;;;;;4996992;28;20026;-86
2022/10/17 11:30:45;;;;;;;12.48;7.40;;;26.30;49.00;;;;;;4997813;28;20026;-87
2022/10/17 11:33:18;;;;;;;12.90;7.07;;;26.20;48.90;;;;;;4997157;28;20453;-87
2022/10/17 11:35:48;;;;;;;12.60;6.55;;;26.40;49.20;;;;;;4996687;28;20373;-84
2022/10/17 11:38:29;;;;;;;10.10;6.90;;;26.60;48.90;;;;;;4996780;28;20037;-87
2022/10/17 11:40:59;;;;;;;10.20;7.32;;;26.70;49.10;;;;;;4996829;28;20021;-88
2022/10/17 11:43:30;;;;;;;9.45;6.85;;;26.80;49.00;;;;;;4996577;28;20073;-89
2022/10/17 11:46:01;;;;;;;9.85;6.53;;;26.90;49.20;;;;;;4997296;28;20061;-84
2022/10/17 11:48:39;;;;;;;8.23;5.47;;;26.80;48.00;;;;;;4995872;28;20030;-83
2022/10/17 11:51:13;;;;;;;8.43;5.25;;;26.30;48.20;;;;;;4998247;28;20022;-82
2022/10/17 11:54:17;;;;;;;7.85;5.40;;;26.20;48.20;;;;;;5013023;28;20057;-93
2022/10/17 11:57:00;;;;;;;9.63;5.78;;;26.00;48.10;;;;;;4920919;29;20463;-92
2022/10/17 11:59:47;;;;;;;9.02;5.45;;;25.80;48.10;;;;;;4919188;29;20043;-89
2022/10/17 12:02:46;;;;;;;10.20;5.43;;;25.80;48.10;;;;;;4919002;29;20491;-90
2022/10/17 12:05:26;;;;;;;9.15;5.70;;;26.30;48.30;;;;;;4862311;29;20420;-91
2022/10/17 12:08:01;;;;;;;9.90;5.82;;;26.10;47.70;;;;;;4862501;29;20033;-86
2022/10/17 12:10:55;;;;;;;11.05;5.35;;;26.00;48.00;;;;;;4863169;29;20402;-86
2022/10/17 12:13:26;;;;;;;8.35;5.57;;;26.30;48.40;;;;;;4863118;29;20097;-88
2022/10/17 12:15:54;;;;;;;8.60;5.68;;;26.20;48.00;;;;;;4862675;29;20037;-88
2022/10/17 12:18:24;;;;;;;14.07;5.68;;;25.80;47.80;;;;;;4863010;29;20033;-92
2022/10/17 12:20:58;;;;;;;8.63;5.97;;;25.40;48.40;;;;;;4862115;29;20041;-86
2022/10/17 12:23:28;;;;;;;11.75;5.80;;;25.50;48.30;;;;;;4877903;29;20147;-85
2022/10/17 12:26:03;;;;;;;7.70;5.18;;;25.60;48.30;;;;;;4862908;29;20028;-86
2022/10/17 12:28:44;;;;;;;9.57;5.25;;;25.90;47.90;;;;;;4931155;29;20091;-89
2022/10/17 12:31:11;;;;;;;8.18;5.32;;;26.30;47.80;;;;;;4938372;29;20039;-86
2022/10/17 12:33:54;;;;;;;7.72;5.50;;;26.40;47.50;;;;;;4938206;29;20027;-92
2022/10/17 12:36:25;;;;;;;14.00;5.72;;;26.50;47.30;;;;;;4937606;29;20039;-92
2022/10/17 12:39:03;;;;;;;9.25;5.80;;;26.60;47.50;;;;;;4937614;29;20082;-88
2022/10/17 12:41:38;;;;;;;10.18;5.25;;;26.70;46.80;;;;;;4957637;28;20073;-91
2022/10/17 12:44:12;;;;;;;9.52;5.80;;;26.50;47.00;;;;;;4997493;28;20042;-87
2022/10/17 12:46:57;;;;;;;8.75;6.13;;;26.30;46.90;;;;;;4996167;28;20030;-91
2022/10/17 12:49:38;;;;;;;13.30;5.97;;;26.30;47.40;;;;;;4995893;28;20481;-88
2022/10/17 12:52:09;;;;;;;9.35;5.00;;;26.30;47.20;;;;;;4996559;28;20064;-90
2022/10/17 12:54:43;;;;;;;8.80;5.47;;;26.50;46.50;;;;;;4996684;28;20030;-88
2022/10/17 12:57:32;;;;;;;9.00;5.85;;;26.30;47.10;;;;;;4997539;28;20373;-83
2022/10/17 13:00:03;;;;;;;10.38;6.15;;;26.30;47.20;;;;;;4981495;28;20033;-94
2022/10/17 13:02:30;;;;;;;10.50;5.30;;;26.20;47.00;;;;;;5018070;28;20018;-90
2022/10/17 13:05:07;;;;;;;11.50;5.63;;;26.10;46.70;;;;;;5017724;28;20069;-87
2022/10/17 13:07:34;;;;;;;7.88;4.85;;;25.90;46.70;;;;;;4999935;28;20542;-88
2022/10/17 13:10:03;;;;;;;11.85;5.80;;;26.00;47.00;;;;;;5000365;28;20112;-92
2022/10/17 13:12:33;;;;;;;10.13;5.50;;;26.30;46.90;;;;;;5000070;28;20026;-91
2022/10/17 13:15:03;;;;;;;7.97;5.65;;;26.30;47.00;;;;;;5000188;28;20108;-90
2022/10/17 13:17:33;;;;;;;9.57;5.47;;;26.30;47.20;;;;;;5000138;28;20049;-87
2022/10/17 13:19:59;;;;;;;;;;;26.40;47.30;;;;;;5000294;28;20489;-91